createdAt,value
2022-11-30T00:00:56.647Z,78088.66
2022-11-30T00:03:24.851Z,78084.41
2022-11-30T00:05:52.973Z,78082.31
2022-11-30T00:08:20.610Z,78073.84
2022-11-30T00:10:49.625Z,78065.38
2022-11-30T00:13:17.225Z,78078.06
2022-11-30T00:15:45.007Z,78090.78
2022-11-30T00:18:12.593Z,78114.06
2022-11-30T00:20:40.226Z,78124.66
2022-11-30T00:23:09.928Z,78120.41
2022-11-30T00:25:38.237Z,78109.84
2022-11-30T00:28:07.708Z,78090.78
2022-11-30T00:30:35.411Z,78078.06
2022-11-30T00:33:03.156Z,78082.31
2022-11-30T00:35:32.004Z,78078.06
2022-11-30T00:37:59.609Z,78069.59
2022-11-30T00:40:27.242Z,78086.53
2022-11-30T00:42:54.854Z,78109.84
2022-11-30T00:45:23.821Z,78097.13
2022-11-30T00:47:51.423Z,78078.06
2022-11-30T00:50:19.020Z,78097.13
2022-11-30T00:52:46.626Z,78080.19
2022-11-30T00:55:14.275Z,78078.06
2022-11-30T00:57:41.949Z,78103.47
2022-11-30T01:00:10.689Z,78111.94
2022-11-30T01:02:39.707Z,78099.25
2022-11-30T01:05:07.596Z,78084.41
2022-11-30T01:07:35.230Z,78084.41
2022-11-30T01:10:02.866Z,78101.38
2022-11-30T01:12:30.666Z,78101.38
2022-11-30T01:14:58.315Z,78082.31
2022-11-30T01:17:25.947Z,78082.31
2022-11-30T01:19:54.905Z,78090.78
2022-11-30T01:22:22.531Z,78082.31
2022-11-30T01:24:50.108Z,78095.00
2022-11-30T01:27:17.720Z,78084.41
2022-11-30T01:29:45.401Z,78097.13
2022-11-30T01:32:13.015Z,78103.47
2022-11-30T01:34:40.652Z,78097.13
2022-11-30T01:37:09.617Z,78103.47
2022-11-30T01:39:37.212Z,78111.94
2022-11-30T01:42:05.061Z,78111.94
2022-11-30T01:44:52.425Z,78084.41
2022-11-30T01:47:22.289Z,78073.84
2022-11-30T01:49:53.297Z,78071.72
2022-11-30T01:52:24.409Z,78084.41
2022-11-30T01:54:54.320Z,78095.00
2022-11-30T01:57:26.922Z,78090.78
2022-11-30T01:59:56.124Z,78082.31
2022-11-30T02:02:34.074Z,78071.72
2022-11-30T02:05:01.716Z,78061.13
2022-11-30T02:07:30.732Z,78067.47
2022-11-30T02:09:58.533Z,78050.53
2022-11-30T02:12:31.473Z,78059.00
2022-11-30T02:15:01.689Z,78059.00
2022-11-30T02:17:35.093Z,78061.13
2022-11-30T02:20:28.264Z,78078.06
2022-11-30T02:23:10.492Z,78078.06
2022-11-30T02:25:44.304Z,78063.25
2022-11-30T02:28:34.536Z,78092.91
2022-11-30T02:31:03.614Z,78082.31
2022-11-30T02:33:32.729Z,78084.41
2022-11-30T02:36:00.748Z,78088.66
2022-11-30T02:38:29.220Z,78082.31
2022-11-30T02:40:56.814Z,78078.06
2022-11-30T02:43:26.443Z,78065.38
2022-11-30T02:46:00.701Z,78088.66
2022-11-30T02:48:30.194Z,78103.47
2022-11-30T02:51:00.308Z,78097.13
2022-11-30T02:53:27.988Z,78092.91
2022-11-30T02:55:55.784Z,78099.25
2022-11-30T02:58:23.453Z,78082.31
2022-11-30T03:00:51.073Z,78065.38
2022-11-30T03:03:20.057Z,78065.38
2022-11-30T03:05:47.734Z,78086.53
2022-11-30T03:08:15.340Z,78101.38
2022-11-30T03:10:43.018Z,78105.59
2022-11-30T03:13:10.609Z,78114.06
2022-11-30T03:15:38.284Z,78105.59
2022-11-30T03:18:06.170Z,78118.31
2022-11-30T03:20:35.110Z,78116.19
2022-11-30T03:23:02.832Z,78107.72
2022-11-30T03:25:30.729Z,78103.47
2022-11-30T03:28:13.452Z,78082.31
2022-11-30T03:30:41.090Z,78101.38
2022-11-30T03:33:08.711Z,78105.59
2022-11-30T03:35:37.657Z,78105.59
2022-11-30T03:38:05.288Z,78114.06
2022-11-30T03:40:32.864Z,78099.25
2022-11-30T03:43:00.445Z,78088.66
2022-11-30T03:45:28.046Z,78073.84
2022-11-30T03:47:55.628Z,78061.13
2022-11-30T03:50:23.449Z,78084.41
2022-11-30T03:52:52.548Z,78088.66
2022-11-30T03:55:20.214Z,78086.53
2022-11-30T03:57:47.840Z,78095.00
2022-11-30T04:00:16.805Z,78092.91
2022-11-30T04:02:45.112Z,78101.38
2022-11-30T04:05:13.313Z,78111.94
2022-11-30T04:07:40.977Z,78103.47
2022-11-30T04:10:11.633Z,78103.47
2022-11-30T04:12:39.243Z,78103.47
2022-11-30T04:15:07.856Z,78105.59
2022-11-30T04:17:35.475Z,78103.47
2022-11-30T04:20:03.073Z,78103.47
2022-11-30T04:22:30.687Z,78105.59
2022-11-30T04:24:58.278Z,78111.94
2022-11-30T04:27:29.501Z,78116.19
2022-11-30T04:29:57.069Z,78111.94
2022-11-30T04:32:24.674Z,78116.19
2022-11-30T04:34:52.273Z,78128.91
2022-11-30T04:37:19.921Z,78116.19
2022-11-30T04:39:47.633Z,78111.94
2022-11-30T04:42:15.281Z,78109.84
2022-11-30T04:44:44.324Z,78111.94
2022-11-30T04:47:12.075Z,78088.66
2022-11-30T04:49:39.685Z,78090.78
2022-11-30T04:52:07.369Z,78071.72
2022-11-30T04:54:34.967Z,78078.06
2022-11-30T04:57:02.560Z,78099.25
2022-11-30T04:59:30.220Z,78099.25
2022-11-30T05:01:59.252Z,78090.78
2022-11-30T05:04:26.939Z,78103.47
2022-11-30T05:06:54.635Z,78103.47
2022-11-30T05:09:22.266Z,78088.66
2022-11-30T05:11:49.843Z,78095.00
2022-11-30T05:14:17.637Z,78086.53
2022-11-30T05:16:48.239Z,78095.00
2022-11-30T05:19:17.628Z,78090.78
2022-11-30T05:21:46.040Z,78111.94
2022-11-30T05:24:13.753Z,78124.66
2022-11-30T05:26:41.492Z,78126.78
2022-11-30T05:29:09.065Z,78124.66
2022-11-30T05:31:39.436Z,78154.31
2022-11-30T05:34:07.160Z,78158.53
2022-11-30T05:36:36.106Z,78141.59
2022-11-30T05:39:03.768Z,78128.91
2022-11-30T05:41:31.447Z,78118.31
2022-11-30T05:43:59.089Z,78101.38
2022-11-30T05:46:26.755Z,78095.00
2022-11-30T05:48:54.370Z,78118.31
2022-11-30T05:51:22.352Z,78133.13
2022-11-30T05:53:51.330Z,78124.66
2022-11-30T05:56:20.524Z,78135.25
2022-11-30T05:58:48.714Z,78133.13
2022-11-30T06:01:20.456Z,78131.00
2022-11-30T06:03:48.397Z,78147.94
2022-11-30T06:06:16.011Z,78162.78
2022-11-30T06:08:43.850Z,78160.66
2022-11-30T06:11:12.865Z,78154.31
2022-11-30T06:13:40.997Z,78143.72
2022-11-30T06:16:09.153Z,78135.25
2022-11-30T06:18:37.961Z,78135.25
2022-11-30T06:21:07.778Z,78126.78
2022-11-30T06:23:35.724Z,78131.00
2022-11-30T06:26:05.123Z,78133.13
2022-11-30T06:28:34.427Z,78126.78
2022-11-30T06:31:02.559Z,78120.41
2022-11-30T06:33:30.534Z,78126.78
2022-11-30T06:35:58.484Z,78131.00
2022-11-30T06:38:26.867Z,78152.19
2022-11-30T06:40:54.551Z,78137.38
2022-11-30T06:43:22.169Z,78133.13
2022-11-30T06:45:51.118Z,78128.91
2022-11-30T06:48:18.724Z,78128.91
2022-11-30T06:50:50.093Z,78133.13
2022-11-30T06:53:17.975Z,78133.13
2022-11-30T06:55:45.584Z,78154.31
2022-11-30T06:58:13.355Z,78145.84
2022-11-30T07:00:40.992Z,78141.59
2022-11-30T07:03:12.335Z,78128.91
2022-11-30T07:05:43.793Z,78128.91
2022-11-30T07:08:11.434Z,78122.53
2022-11-30T07:10:41.600Z,78126.78
2022-11-30T07:13:11.957Z,78124.66
2022-11-30T07:15:39.954Z,78124.66
2022-11-30T07:18:07.668Z,78124.66
2022-11-30T07:20:37.283Z,78128.91
2022-11-30T07:23:19.267Z,78124.66
2022-11-30T07:26:04.236Z,78122.53
2022-11-30T07:28:32.316Z,78120.41
2022-11-30T07:30:59.901Z,78120.41
2022-11-30T07:33:27.510Z,78105.59
2022-11-30T07:35:56.573Z,78103.47
2022-11-30T07:38:24.223Z,78095.00
2022-11-30T07:40:52.092Z,78111.94
2022-11-30T07:43:19.742Z,78114.06
2022-11-30T07:45:52.894Z,78107.72
2022-11-30T07:48:20.689Z,78111.94
2022-11-30T07:50:48.492Z,78120.41
2022-11-30T07:53:17.761Z,78133.13
2022-11-30T07:55:45.890Z,78128.91
2022-11-30T07:58:17.277Z,78124.66
2022-11-30T08:00:45.298Z,78124.66
2022-11-30T08:03:12.967Z,78116.19
2022-11-30T08:05:40.635Z,78114.06
2022-11-30T08:08:08.282Z,78128.91
2022-11-30T08:10:37.252Z,78145.84
2022-11-30T08:13:04.894Z,78137.38
2022-11-30T08:15:33.707Z,78126.78
2022-11-30T08:18:05.444Z,78135.25
2022-11-30T08:20:33.143Z,78124.66
2022-11-30T08:23:00.750Z,78118.31
2022-11-30T08:25:29.049Z,78135.25
2022-11-30T08:27:58.041Z,78124.66
2022-11-30T08:30:29.367Z,78122.53
2022-11-30T08:33:00.005Z,78111.94
2022-11-30T08:35:27.688Z,78116.19
2022-11-30T08:37:55.322Z,78131.00
2022-11-30T08:40:22.935Z,78124.66
2022-11-30T08:42:50.524Z,78128.91
2022-11-30T08:45:19.602Z,78124.66
2022-11-30T08:47:47.441Z,78116.19
2022-11-30T08:50:15.121Z,78124.66
2022-11-30T08:52:42.742Z,78114.06
2022-11-30T08:55:10.741Z,78118.31
2022-11-30T08:57:38.394Z,78109.84
2022-11-30T09:00:07.453Z,78092.91
2022-11-30T09:02:38.257Z,78080.19
2022-11-30T09:05:06.681Z,78069.59
2022-11-30T09:07:34.365Z,78073.84
2022-11-30T09:10:02.030Z,78061.13
2022-11-30T09:12:29.665Z,78052.66
2022-11-30T09:14:58.514Z,78061.13
2022-11-30T09:17:26.967Z,78056.91
2022-11-30T09:19:56.035Z,78044.19
2022-11-30T09:22:23.765Z,78039.94
2022-11-30T09:24:51.393Z,78052.66
2022-11-30T09:27:19.085Z,78037.84
2022-11-30T09:29:46.940Z,78039.94
2022-11-30T09:32:14.537Z,78042.06
2022-11-30T09:34:42.214Z,78035.72
2022-11-30T09:37:11.170Z,78033.59
2022-11-30T09:39:38.835Z,78052.66
2022-11-30T09:42:25.037Z,78044.19
2022-11-30T09:45:05.299Z,78046.31
2022-11-30T09:47:54.904Z,78054.78
2022-11-30T09:50:25.110Z,78067.47
2022-11-30T09:52:56.341Z,78069.59
2022-11-30T09:55:27.693Z,78067.47
2022-11-30T09:57:57.452Z,78080.19
2022-11-30T10:00:26.156Z,78116.19
2022-11-30T10:02:56.258Z,78126.78
2022-11-30T10:05:26.371Z,78141.59
2022-11-30T10:08:22.485Z,78160.66
2022-11-30T10:10:56.113Z,78147.94
2022-11-30T10:13:39.184Z,78124.66
2022-11-30T10:16:13.945Z,78124.66
2022-11-30T10:18:48.445Z,78131.00
2022-11-30T10:21:26.866Z,78124.66
2022-11-30T10:24:13.849Z,78122.53
2022-11-30T10:26:46.885Z,78116.19
2022-11-30T10:29:19.296Z,78135.25
2022-11-30T10:31:46.928Z,78120.41
2022-11-30T10:34:20.436Z,78133.13
2022-11-30T10:36:54.380Z,78128.91
2022-11-30T10:39:26.086Z,78156.41
2022-11-30T10:41:56.801Z,78152.19
2022-11-30T10:44:27.687Z,78143.72
2022-11-30T10:46:58.855Z,78133.13
2022-11-30T10:49:29.453Z,78120.41
2022-11-30T10:52:00.304Z,78135.25
2022-11-30T10:54:31.558Z,78173.38
2022-11-30T10:57:01.049Z,78177.59
2022-11-30T10:59:32.601Z,78145.84
2022-11-30T11:02:00.256Z,78139.47
2022-11-30T11:04:28.391Z,78122.53
2022-11-30T11:06:58.057Z,78137.38
2022-11-30T11:09:34.318Z,78133.13
2022-11-30T11:12:03.489Z,78124.66
2022-11-30T11:14:37.500Z,78154.31
2022-11-30T11:17:07.808Z,78162.78
2022-11-30T11:19:38.439Z,78158.53
2022-11-30T11:22:08.124Z,78167.00
2022-11-30T11:24:37.161Z,78158.53
2022-11-30T11:27:04.991Z,78154.31
2022-11-30T11:29:34.408Z,78179.72
2022-11-30T11:32:24.747Z,78160.66
2022-11-30T11:34:52.547Z,78158.53
2022-11-30T11:37:26.211Z,78147.94
2022-11-30T11:40:06.950Z,78120.41
2022-11-30T11:42:38.411Z,78116.19
2022-11-30T11:45:07.937Z,78105.59
2022-11-30T11:47:40.323Z,78073.84
2022-11-30T11:50:14.603Z,78063.25
2022-11-30T11:52:42.375Z,78061.13
2022-11-30T11:55:15.515Z,78056.91
2022-11-30T11:57:47.776Z,78035.72
2022-11-30T12:00:17.566Z,78044.19
2022-11-30T12:02:52.103Z,78039.94
2022-11-30T12:05:26.170Z,78027.25
2022-11-30T12:08:01.546Z,78025.13
2022-11-30T12:13:24.254Z,78012.44
2022-11-30T12:16:01.243Z,78012.44
2022-11-30T12:18:33.831Z,78001.84
2022-11-30T12:21:03.452Z,78003.97
2022-11-30T12:23:57.522Z,78010.31
2022-11-30T12:26:31.759Z,78001.84
2022-11-30T12:29:09.877Z,78006.06
2022-11-30T12:31:44.781Z,77993.38
2022-11-30T12:34:17.764Z,77993.38
2022-11-30T12:36:50.973Z,77993.38
2022-11-30T12:39:25.745Z,77987.00
2022-11-30T12:41:59.765Z,77976.44
2022-11-30T12:44:47.134Z,77978.53
2022-11-30T12:47:26.571Z,77976.44
2022-11-30T12:50:10.042Z,77976.44
2022-11-30T12:52:44.123Z,77972.19
2022-11-30T12:55:21.868Z,77972.19
2022-11-30T12:57:58.018Z,77989.13
2022-11-30T13:00:26.555Z,77982.78
2022-11-30T13:03:25.974Z,77980.66
2022-11-30T13:05:57.999Z,78001.84
2022-11-30T13:08:29.075Z,77995.47
2022-11-30T13:10:58.450Z,77995.47
2022-11-30T13:13:30.859Z,77993.38
2022-11-30T13:15:58.321Z,77999.72
2022-11-30T13:18:27.194Z,77999.72
2022-11-30T13:21:03.259Z,78016.66
2022-11-30T13:23:37.545Z,78001.84
2022-11-30T13:26:10.396Z,77991.25
2022-11-30T13:28:51.037Z,77993.38
2022-11-30T13:31:21.427Z,78010.31
2022-11-30T13:33:50.778Z,78031.47
2022-11-30T13:36:39.443Z,78027.25
2022-11-30T13:39:22.945Z,78037.84
2022-11-30T13:41:52.121Z,78031.47
2022-11-30T13:44:32.759Z,78018.78
2022-11-30T13:47:01.745Z,78006.06
2022-11-30T13:49:30.753Z,77999.72
2022-11-30T13:52:21.486Z,78018.78
2022-11-30T13:54:48.353Z,78027.25
2022-11-30T13:57:35.320Z,78035.72
2022-11-30T14:00:43.314Z,78025.13
2022-11-30T14:03:24.744Z,78014.53
2022-11-30T14:05:52.911Z,78010.31
2022-11-30T14:08:38.854Z,78006.06
2022-11-30T14:11:41.681Z,77999.72
2022-11-30T14:14:45.813Z,78003.97
2022-11-30T14:17:19.288Z,78010.31
2022-11-30T14:19:48.012Z,78008.19
2022-11-30T14:22:16.297Z,78012.44
2022-11-30T14:24:46.691Z,78018.78
2022-11-30T14:27:18.414Z,78018.78
2022-11-30T14:29:53.062Z,78023.00
2022-11-30T14:32:27.377Z,78010.31
2022-11-30T14:34:57.154Z,78018.78
2022-11-30T14:37:27.666Z,78003.97
2022-11-30T14:39:56.571Z,77989.13
2022-11-30T14:42:26.755Z,77989.13
2022-11-30T14:44:55.372Z,77991.25
2022-11-30T14:47:26.038Z,77989.13
2022-11-30T14:49:57.167Z,77987.00
2022-11-30T14:52:51.946Z,77982.78
2022-11-30T14:55:28.875Z,77991.25
2022-11-30T14:58:07.140Z,77993.38
2022-11-30T15:00:39.045Z,77995.47
2022-11-30T15:03:18.769Z,78010.31
2022-11-30T15:05:46.698Z,77999.72
2022-11-30T15:08:18.978Z,78003.97
2022-11-30T15:10:47.369Z,77997.59
2022-11-30T15:13:16.621Z,77993.38
2022-11-30T15:15:52.434Z,78003.97
2022-11-30T15:18:22.396Z,78001.84
2022-11-30T15:20:54.612Z,77997.59
2022-11-30T15:23:22.477Z,77989.13
2022-11-30T15:25:52.078Z,77978.53
2022-11-30T15:28:22.714Z,77974.31
2022-11-30T15:30:51.719Z,77972.19
2022-11-30T15:33:22.042Z,77982.78
2022-11-30T15:38:40.818Z,77995.47
2022-11-30T15:41:17.525Z,77987.00
2022-11-30T15:43:50.265Z,77995.47
2022-11-30T15:46:32.811Z,77982.78
2022-11-30T15:49:08.707Z,77978.53
2022-11-30T15:51:40.838Z,77978.53
2022-11-30T15:54:08.871Z,77987.00
2022-11-30T15:56:36.690Z,77974.31
2022-11-30T15:59:06.078Z,77976.44
2022-11-30T16:02:02.244Z,77995.47
2022-11-30T16:05:13.815Z,77989.13
2022-11-30T16:07:50.454Z,77982.78
2022-11-30T16:10:20.979Z,77997.59
2022-11-30T16:12:50.192Z,77997.59
2022-11-30T16:15:19.092Z,78008.19
2022-11-30T16:17:46.945Z,78010.31
2022-11-30T16:20:16.823Z,78001.84
2022-11-30T16:22:46.977Z,78006.06
2022-11-30T16:25:15.696Z,77997.59
2022-11-30T16:27:43.500Z,77993.38
2022-11-30T16:30:15.432Z,77987.00
2022-11-30T16:32:43.198Z,77982.78
2022-11-30T16:35:21.331Z,77980.66
2022-11-30T16:37:49.574Z,77995.47
2022-11-30T16:40:17.831Z,77984.91
2022-11-30T16:42:45.942Z,77984.91
2022-11-30T16:45:16.459Z,77984.91
2022-11-30T16:47:44.781Z,77980.66
2022-11-30T16:50:13.137Z,77980.66
2022-11-30T16:52:42.862Z,77972.19
2022-11-30T16:55:14.116Z,77967.97
2022-11-30T16:57:41.755Z,77967.97
2022-11-30T17:00:10.996Z,77972.19
2022-11-30T17:02:40.901Z,77976.44
2022-11-30T17:05:09.494Z,77972.19
2022-11-30T17:07:37.905Z,77967.97
2022-11-30T17:10:08.257Z,77965.84
2022-11-30T17:12:36.151Z,77965.84
2022-11-30T17:17:59.831Z,77959.47
2022-11-30T17:20:31.566Z,77967.97
2022-11-30T17:23:00.961Z,77974.31
2022-11-30T17:25:29.952Z,77967.97
2022-11-30T17:27:57.576Z,77965.84
2022-11-30T17:30:25.332Z,77967.97
2022-11-30T17:32:53.522Z,77959.47
2022-11-30T17:35:21.133Z,77965.84
2022-11-30T17:37:49.018Z,77970.06
2022-11-30T17:40:16.831Z,77970.06
2022-11-30T17:42:46.129Z,77965.84
2022-11-30T17:45:21.412Z,77972.19
2022-11-30T17:47:49.075Z,77967.97
2022-11-30T17:50:16.915Z,77963.72
2022-11-30T17:52:45.030Z,77978.53
2022-11-30T17:55:12.674Z,77965.84
2022-11-30T17:57:40.328Z,77970.06
2022-11-30T18:00:16.944Z,77972.19
2022-11-30T18:02:44.652Z,77982.78
2022-11-30T18:05:12.519Z,77978.53
2022-11-30T18:07:42.133Z,77993.38
2022-11-30T18:10:10.750Z,77982.78
2022-11-30T18:12:38.654Z,77989.13
2022-11-30T18:15:09.489Z,77980.66
2022-11-30T18:17:38.512Z,77976.44
2022-11-30T18:20:07.481Z,77978.53
2022-11-30T18:22:35.496Z,77980.66
2022-11-30T18:25:03.285Z,77976.44
2022-11-30T18:27:31.015Z,77970.06
2022-11-30T18:29:59.552Z,77982.78
2022-11-30T18:32:27.176Z,77976.44
2022-11-30T18:34:56.216Z,77982.78
2022-11-30T18:37:23.864Z,77972.19
2022-11-30T18:39:52.051Z,77980.66
2022-11-30T18:42:20.493Z,77980.66
2022-11-30T18:44:48.928Z,77980.66
2022-11-30T18:47:16.708Z,77989.13
2022-11-30T18:49:44.338Z,77980.66
2022-11-30T18:52:13.354Z,77980.66
2022-11-30T18:54:41.417Z,77972.19
2022-11-30T18:57:09.050Z,77976.44
2022-11-30T18:59:36.690Z,77976.44
2022-11-30T19:02:06.148Z,77974.31
2022-11-30T19:04:33.914Z,77972.19
2022-11-30T19:07:01.525Z,77965.84
2022-11-30T19:09:30.807Z,77957.38
2022-11-30T19:11:58.429Z,77963.72
2022-11-30T19:14:26.065Z,77991.25
2022-11-30T19:16:54.168Z,77989.13
2022-11-30T19:19:22.663Z,77984.91
2022-11-30T19:21:50.474Z,77989.13
2022-11-30T19:24:18.230Z,77987.00
2022-11-30T19:26:47.821Z,77980.66
2022-11-30T19:29:15.980Z,77974.31
2022-11-30T19:31:43.650Z,77974.31
2022-11-30T19:34:13.219Z,77963.72
2022-11-30T19:36:41.785Z,77976.44
2022-11-30T19:39:10.833Z,77965.84
2022-11-30T19:41:38.478Z,77978.53
2022-11-30T19:44:07.868Z,77976.44
2022-11-30T19:46:35.613Z,77976.44
2022-11-30T19:49:03.480Z,77972.19
2022-11-30T19:51:34.319Z,77980.66
2022-11-30T19:54:02.565Z,77972.19
2022-11-30T19:56:32.123Z,77989.13
2022-11-30T19:59:05.026Z,77976.44
2022-11-30T20:01:35.754Z,77980.66
2022-11-30T20:04:03.975Z,77976.44
2022-11-30T20:06:34.936Z,77965.84
2022-11-30T20:09:03.214Z,77967.97
2022-11-30T20:11:30.871Z,77967.97
2022-11-30T20:14:00.577Z,77967.97
2022-11-30T20:16:28.872Z,77959.47
2022-11-30T20:19:00.893Z,77961.59
2022-11-30T20:21:30.664Z,77961.59
2022-11-30T20:23:59.981Z,77957.38
2022-11-30T20:26:30.989Z,77951.03
2022-11-30T20:29:00.086Z,77946.78
2022-11-30T20:31:30.153Z,77955.25
2022-11-30T20:33:59.471Z,77948.91
2022-11-30T20:36:27.258Z,77944.66
2022-11-30T20:38:55.003Z,77955.25
2022-11-30T20:41:24.775Z,77951.03
2022-11-30T20:43:52.769Z,77942.53
2022-11-30T20:46:23.946Z,77955.25
2022-11-30T20:48:52.145Z,77951.03
2022-11-30T20:51:31.612Z,77946.78
2022-11-30T20:54:00.344Z,77951.03
2022-11-30T20:56:27.958Z,77951.03
2022-11-30T20:58:55.660Z,77957.38
2022-11-30T21:01:24.379Z,77951.03
2022-11-30T21:03:52.426Z,77955.25
2022-11-30T21:06:21.462Z,77953.13
2022-11-30T21:08:49.818Z,77961.59
2022-11-30T21:11:20.433Z,77955.25
2022-11-30T21:13:50.001Z,77948.91
2022-11-30T21:16:24.045Z,77946.78
2022-11-30T21:18:54.846Z,77955.25
2022-11-30T21:21:25.875Z,77951.03
2022-11-30T21:23:53.829Z,77955.25
2022-11-30T21:26:22.902Z,77959.47
2022-11-30T21:28:53.100Z,77957.38
2022-11-30T21:31:21.356Z,77955.25
2022-11-30T21:33:53.336Z,77953.13
2022-11-30T21:36:23.570Z,77955.25
2022-11-30T21:39:02.661Z,77961.59
2022-11-30T21:41:32.496Z,77967.97
2022-11-30T21:44:00.182Z,77965.84
2022-11-30T21:46:27.906Z,77959.47
2022-11-30T21:48:55.723Z,77961.59
2022-11-30T21:51:25.314Z,77967.97
2022-11-30T21:53:55.705Z,77965.84
2022-11-30T21:56:24.780Z,77967.97
2022-11-30T21:58:52.999Z,77972.19
2022-11-30T22:01:22.156Z,77963.72
2022-11-30T22:03:50.269Z,77963.72
2022-11-30T22:06:19.666Z,77948.91
2022-11-30T22:08:47.737Z,77955.25
2022-11-30T22:11:18.288Z,77953.13
2022-11-30T22:13:46.404Z,77959.47
2022-11-30T22:16:15.740Z,77959.47
2022-11-30T22:18:44.682Z,77955.25
2022-11-30T22:21:13.752Z,77951.03
2022-11-30T22:23:42.824Z,77944.66
2022-11-30T22:26:11.868Z,77951.03
2022-11-30T22:28:42.569Z,77944.66
2022-11-30T22:31:11.968Z,77951.03
2022-11-30T22:33:40.679Z,77953.13
2022-11-30T22:36:09.644Z,77948.91
2022-11-30T22:38:37.267Z,77959.47
2022-11-30T22:41:06.312Z,77959.47
2022-11-30T22:43:34.314Z,77959.47
2022-11-30T22:46:10.576Z,77955.25
2022-11-30T22:48:38.550Z,77955.25
2022-11-30T22:51:07.836Z,77970.06
2022-11-30T22:53:36.334Z,77963.72
2022-11-30T22:56:05.271Z,77959.47
2022-11-30T22:58:33.106Z,77959.47
2022-11-30T23:01:10.496Z,77948.91
2022-11-30T23:03:39.284Z,77948.91
2022-11-30T23:06:07.841Z,77955.25
2022-11-30T23:08:36.326Z,77946.78
2022-11-30T23:11:05.563Z,77948.91
2022-11-30T23:13:33.171Z,77940.44
2022-11-30T23:16:01.173Z,77948.91
2022-11-30T23:18:31.421Z,77951.03
2022-11-30T23:21:05.542Z,77946.78
2022-11-30T23:23:33.338Z,77940.44
2022-11-30T23:26:09.494Z,77942.53
2022-11-30T23:28:40.961Z,77942.53
2022-11-30T23:31:10.275Z,77942.53
2022-11-30T23:33:59.748Z,77938.31
2022-11-30T23:36:27.396Z,77934.06
2022-11-30T23:38:57.320Z,77948.91
2022-11-30T23:41:25.594Z,77942.53
2022-11-30T23:43:53.738Z,77934.06
2022-11-30T23:46:21.895Z,77936.19
2022-11-30T23:48:49.866Z,77955.25
2022-11-30T23:51:18.938Z,77946.78
2022-11-30T23:53:46.740Z,77944.66
2022-11-30T23:56:15.879Z,77938.31
2022-11-30T23:58:43.568Z,77953.13
